Time;durP1;ratioP1;P1;durP2;ratioP2;P2;SDS_P1;SDS_P2;PMS_P1;PMS_P2;Temp;Humidity;BMP_temperature;BMP_pressure;BME280_temperature;BME280_humidity;BME280_pressure;Samples;Min_cycle;Max_cycle;Signal;HPM_P1;HPM_P2
2023/07/01 00:01:45;;;;;;;17.80;8.80;;;;;;;16.65;100.00;99936.00;107178;1281;73744;-81
2023/07/01 00:04:12;;;;;;;13.40;7.30;;;;;;;16.67;100.00;99938.55;106967;1282;58191;-83
2023/07/01 00:06:41;;;;;;;18.40;8.70;;;;;;;16.67;100.00;99941.38;107151;1281;72437;-84
2023/07/01 00:09:09;;;;;;;14.90;7.90;;;;;;;16.67;100.00;99948.36;107079;1281;62844;-84
2023/07/01 00:11:34;;;;;;;12.40;7.50;;;;;;;16.68;100.00;99949.81;106724;1282;60151;-84
2023/07/01 00:14:00;;;;;;;15.10;8.00;;;;;;;16.68;100.00;99951.70;106707;1282;58154;-82
2023/07/01 00:16:27;;;;;;;14.20;8.50;;;;;;;16.65;100.00;99955.14;107138;1281;58127;-84
2023/07/01 00:18:53;;;;;;;14.60;7.90;;;;;;;16.67;100.00;99956.15;107094;1281;58206;-83
2023/07/01 00:21:18;;;;;;;18.30;9.30;;;;;;;16.68;100.00;99954.93;107138;1281;58196;-83
2023/07/01 00:23:44;;;;;;;17.80;9.40;;;;;;;16.67;100.00;99952.20;106723;1282;58202;-83
2023/07/01 00:26:09;;;;;;;17.60;9.00;;;;;;;16.69;100.00;99954.92;107228;1281;58376;-83
2023/07/01 00:28:35;;;;;;;14.40;9.20;;;;;;;16.67;100.00;99963.98;106785;1282;58269;-89
2023/07/01 00:31:00;;;;;;;19.90;9.90;;;;;;;16.66;100.00;99959.85;107107;1282;58212;-84
2023/07/01 00:33:26;;;;;;;19.10;10.60;;;;;;;16.66;100.00;99957.20;107166;1281;58107;-84
2023/07/01 00:35:51;;;;;;;18.70;10.50;;;;;;;16.66;100.00;99951.88;107156;1281;58092;-83
2023/07/01 00:38:17;;;;;;;18.20;9.80;;;;;;;16.62;100.00;99954.33;107183;1281;58141;-83
2023/07/01 00:40:42;;;;;;;17.00;8.40;;;;;;;16.60;100.00;99951.39;106778;1282;61996;-83
2023/07/01 00:43:08;;;;;;;17.40;8.70;;;;;;;16.56;100.00;99954.92;106754;1281;58219;-82
2023/07/01 00:45:33;;;;;;;15.20;8.00;;;;;;;16.53;100.00;99960.44;107149;1281;58264;-88
2023/07/01 00:47:59;;;;;;;17.20;8.80;;;;;;;16.52;100.00;99958.14;106601;1282;58137;-83
2023/07/01 00:50:24;;;;;;;18.30;8.30;;;;;;;16.51;100.00;99955.77;107169;1281;58189;-84
2023/07/01 00:52:50;;;;;;;17.40;8.60;;;;;;;16.51;100.00;99955.71;107129;1281;61296;-83
2023/07/01 00:55:16;;;;;;;12.60;8.90;;;;;;;16.51;100.00;99954.91;106902;1283;58165;-82
2023/07/01 00:57:41;;;;;;;17.20;8.80;;;;;;;16.46;100.00;99954.05;106811;1282;58237;-85
2023/07/01 01:00:12;;;;;;;15.40;8.60;;;;;;;16.45;100.00;99951.81;107067;1281;58150;-87
2023/07/01 01:02:54;;;;;;;12.60;7.80;;;;;;;16.41;100.00;99943.77;106549;1282;61685;-81
2023/07/01 01:05:28;;;;;;;12.60;7.50;;;;;;;16.38;100.00;99944.27;107114;1282;61297;-84
2023/07/01 01:08:17;;;;;;;14.80;7.90;;;;;;;16.32;100.00;99949.11;107135;1281;73853;-84
2023/07/01 01:10:47;;;;;;;16.30;7.70;;;;;;;16.29;100.00;99954.41;107112;1281;74198;-81
2023/07/01 01:13:14;;;;;;;18.40;7.90;;;;;;;16.24;100.00;99953.38;107107;1281;73473;-84
2023/07/01 01:15:41;;;;;;;17.90;8.10;;;;;;;16.21;100.00;99957.48;107115;1281;62054;-82
2023/07/01 01:18:07;;;;;;;16.80;8.20;;;;;;;16.16;100.00;99956.71;107080;1281;61077;-83
2023/07/01 01:20:38;;;;;;;16.60;8.10;;;;;;;16.12;100.00;99953.66;107117;1281;73667;-84
2023/07/01 01:23:13;;;;;;;14.10;7.80;;;;;;;16.10;100.00;99950.04;107092;1281;74416;-83
2023/07/01 01:25:51;;;;;;;18.00;7.50;;;;;;;16.08;100.00;99947.53;107000;1282;72562;-83
2023/07/01 01:28:17;;;;;;;15.30;7.10;;;;;;;16.06;100.00;99955.67;107091;1281;61897;-85
2023/07/01 01:30:43;;;;;;;12.10;7.90;;;;;;;16.05;100.00;99958.52;107183;1282;58117;-88
2023/07/01 01:33:08;;;;;;;18.80;9.00;;;;;;;16.05;100.00;99958.23;106928;1282;58649;-84
2023/07/01 01:35:34;;;;;;;18.30;9.70;;;;;;;16.03;100.00;99958.22;107149;1282;58308;-90
2023/07/01 01:38:29;;;;;;;23.40;9.90;;;;;;;16.00;100.00;99960.80;107128;1281;58291;-84
2023/07/01 01:41:16;;;;;;;15.10;9.30;;;;;;;15.96;100.00;99963.71;106430;1287;61858;-84
2023/07/01 01:44:25;;;;;;;19.60;10.30;;;;;;;15.93;100.00;99970.80;106421;1288;60950;-84
2023/07/01 01:46:51;;;;;;;19.20;9.60;;;;;;;15.91;100.00;99975.10;106455;1288;73582;-83
2023/07/01 01:49:19;;;;;;;25.30;10.70;;;;;;;15.89;100.00;99971.90;106405;1287;58281;-83
2023/07/01 01:51:45;;;;;;;24.90;12.00;;;;;;;15.88;100.00;99970.70;106456;1288;73566;-84
2023/07/01 01:54:14;;;;;;;23.70;11.30;;;;;;;15.84;100.00;99973.42;106446;1288;58672;-82
2023/07/01 01:56:41;;;;;;;24.20;12.10;;;;;;;15.82;100.00;99975.04;106306;1288;59955;-84
2023/07/01 01:59:07;;;;;;;20.40;10.70;;;;;;;15.82;100.00;99979.86;106076;1294;58737;-84
2023/07/01 02:01:35;;;;;;;18.90;10.60;;;;;;;15.80;100.00;99981.62;106318;1288;58363;-84
2023/07/01 02:04:00;;;;;;;20.10;10.80;;;;;;;15.81;100.00;99982.29;106427;1288;73319;-84
2023/07/01 02:06:26;;;;;;;17.10;10.00;;;;;;;15.81;100.00;99989.29;106272;1288;58370;-83
2023/07/01 02:08:51;;;;;;;21.10;10.00;;;;;;;15.83;100.00;99990.56;106445;1288;59012;-84
2023/07/01 02:11:17;;;;;;;22.20;10.30;;;;;;;15.83;100.00;99995.34;106469;1287;58241;-84
2023/07/01 02:13:42;;;;;;;27.50;11.20;;;;;;;15.88;100.00;99991.14;106491;1287;58562;-84
2023/07/01 02:16:08;;;;;;;23.70;11.80;;;;;;;15.92;100.00;99988.88;106399;1288;61931;-84
2023/07/01 02:18:33;;;;;;;19.40;10.40;;;;;;;15.94;100.00;99990.83;106955;1281;58290;-82
2023/07/01 02:20:59;;;;;;;18.80;10.10;;;;;;;15.94;100.00;99985.14;106657;1282;59332;-84
2023/07/01 02:23:24;;;;;;;17.00;10.00;;;;;;;15.97;100.00;99986.48;107130;1281;58419;-84
2023/07/01 02:25:50;;;;;;;21.90;11.40;;;;;;;16.00;100.00;99988.02;106945;1282;58303;-83
2023/07/01 02:28:15;;;;;;;18.80;10.70;;;;;;;16.06;100.00;99991.69;107135;1281;58191;-84
2023/07/01 02:30:41;;;;;;;22.70;10.40;;;;;;;16.15;100.00;99994.65;106654;1282;58723;-84
2023/07/01 02:33:06;;;;;;;23.50;10.70;;;;;;;16.25;100.00;99992.88;107143;1282;58251;-84
2023/07/01 02:35:32;;;;;;;23.40;11.30;;;;;;;16.33;100.00;99986.84;106587;1282;58837;-84
2023/07/01 02:37:57;;;;;;;20.70;11.40;;;;;;;16.42;100.00;99989.62;106986;1282;58214;-82
2023/07/01 02:40:23;;;;;;;22.80;11.80;;;;;;;16.54;100.00;99992.59;106760;1282;58637;-84
2023/07/01 02:42:48;;;;;;;25.50;12.30;;;;;;;16.67;100.00;99997.39;107136;1281;58493;-84
2023/07/01 02:45:14;;;;;;;20.80;11.90;;;;;;;16.78;100.00;99998.99;107171;1282;58244;-82
2023/07/01 02:47:39;;;;;;;26.40;11.30;;;;;;;16.95;100.00;100000.90;107118;1281;58185;-83
2023/07/01 02:50:06;;;;;;;16.70;10.20;;;;;;;17.10;100.00;100005.64;107185;1282;58636;-82
2023/07/01 02:52:31;;;;;;;23.60;10.70;;;;;;;17.29;100.00;100007.21;107125;1281;75148;-84
2023/07/01 02:54:57;;;;;;;22.10;10.80;;;;;;;17.50;100.00;100006.89;107146;1282;58248;-84
2023/07/01 02:57:22;;;;;;;19.40;9.80;;;;;;;17.73;100.00;100010.06;107151;1281;58261;-84
2023/07/01 02:59:50;;;;;;;19.60;9.90;;;;;;;17.97;100.00;100003.62;107143;1281;58968;-84
2023/07/01 03:02:16;;;;;;;19.10;9.70;;;;;;;18.15;100.00;100002.92;107138;1281;58284;-83
2023/07/01 03:04:42;;;;;;;19.30;10.30;;;;;;;18.31;100.00;100002.33;107110;1282;58286;-84
2023/07/01 03:07:07;;;;;;;26.80;11.60;;;;;;;18.45;100.00;100003.48;107080;1282;58205;-83
2023/07/01 03:09:33;;;;;;;17.80;10.00;;;;;;;18.60;100.00;99996.44;107183;1281;58268;-84
2023/07/01 03:11:58;;;;;;;20.70;10.60;;;;;;;18.75;100.00;99998.92;107141;1282;58550;-83
2023/07/01 03:14:24;;;;;;;23.30;9.90;;;;;;;18.93;100.00;99997.52;107155;1281;58239;-82
2023/07/01 03:16:49;;;;;;;17.40;9.60;;;;;;;19.09;100.00;99997.39;106839;1282;58300;-84
2023/07/01 03:19:15;;;;;;;23.40;10.00;;;;;;;19.33;100.00;100002.17;107105;1286;58238;-82
2023/07/01 03:21:41;;;;;;;18.40;9.60;;;;;;;19.57;100.00;99998.09;106632;1281;58383;-84
2023/07/01 03:24:07;;;;;;;17.60;9.30;;;;;;;19.83;100.00;100004.19;107222;1282;58328;-83
2023/07/01 03:26:32;;;;;;;18.60;9.50;;;;;;;20.12;100.00;100006.59;106588;1282;58340;-85
2023/07/01 03:28:58;;;;;;;19.30;9.10;;;;;;;20.40;100.00;100006.77;107171;1282;58603;-83
2023/07/01 03:31:23;;;;;;;13.80;8.50;;;;;;;20.68;100.00;100007.63;106821;1282;58300;-84
2023/07/01 03:33:49;;;;;;;17.60;9.00;;;;;;;20.96;100.00;100009.93;106669;1282;58491;-83
2023/07/01 03:36:15;;;;;;;14.90;8.00;;;;;;;21.24;100.00;100012.25;107171;1281;59426;-83
2023/07/01 03:38:41;;;;;;;16.10;8.00;;;;;;;21.49;100.00;100011.92;106706;1282;59798;-83
2023/07/01 03:41:07;;;;;;;12.40;7.70;;;;;;;21.80;100.00;100009.34;107120;1282;58270;-83
2023/07/01 03:43:33;;;;;;;15.80;8.10;;;;;;;22.06;100.00;100012.39;106573;1282;58798;-89
2023/07/01 03:45:59;;;;;;;14.30;7.80;;;;;;;22.36;100.00;100009.53;106732;1282;58305;-83
2023/07/01 03:48:24;;;;;;;17.00;8.10;;;;;;;22.64;100.00;100011.46;107137;1282;58197;-83
2023/07/01 03:50:50;;;;;;;14.60;7.80;;;;;;;22.91;100.00;100009.62;107144;1281;58395;-82
2023/07/01 03:53:16;;;;;;;20.00;8.00;;;;;;;23.30;100.00;100012.93;106976;1282;58241;-83
2023/07/01 03:55:41;;;;;;;15.80;7.40;;;;;;;23.63;100.00;100010.34;107133;1282;58232;-82
2023/07/01 03:58:07;;;;;;;14.70;7.90;;;;;;;23.98;100.00;100007.25;107152;1282;58313;-80
2023/07/01 04:00:32;;;;;;;17.80;7.70;;;;;;;24.31;100.00;100004.63;107127;1282;58420;-82
2023/07/01 04:03:05;;;;;;;15.00;8.10;;;;;;;24.70;100.00;100001.98;107190;1282;58224;-82
2023/07/01 04:05:35;;;;;;;12.50;7.60;;;;;;;25.14;100.00;100008.84;107134;1281;74579;-82
2023/07/01 04:08:01;;;;;;;17.20;8.30;;;;;;;25.58;100.00;100014.48;107108;1282;74288;-81
2023/07/01 04:10:26;;;;;;;17.90;7.70;;;;;;;25.90;100.00;100013.54;107120;1282;58171;-83
2023/07/01 04:12:52;;;;;;;11.70;7.50;;;;;;;26.22;100.00;100014.02;107132;1282;58149;-82
2023/07/01 04:15:17;;;;;;;15.30;7.60;;;;;;;26.50;100.00;100010.66;106930;1281;58461;-81
2023/07/01 04:17:51;;;;;;;12.40;7.20;;;;;;;26.85;100.00;100009.83;106929;1282;58388;-82
2023/07/01 04:20:17;;;;;;;15.40;8.80;;;;;;;27.12;100.00;100005.03;106918;1282;74787;-84
2023/07/01 04:22:43;;;;;;;12.30;7.30;;;;;;;27.40;100.00;100006.68;106711;1282;72084;-83
2023/07/01 04:25:09;;;;;;;13.40;7.90;;;;;;;27.70;100.00;100009.02;106901;1282;58351;-85
2023/07/01 04:27:36;;;;;;;12.30;8.00;;;;;;;27.98;100.00;100008.50;107138;1282;58264;-86
2023/07/01 04:30:03;;;;;;;18.80;7.90;;;;;;;28.28;100.00;100013.13;106777;1282;58578;-85
2023/07/01 04:32:28;;;;;;;13.70;8.40;;;;;;;28.41;97.77;100011.33;107187;1282;58250;-83
2023/07/01 04:34:54;;;;;;;14.50;8.30;;;;;;;28.66;96.84;100016.80;107103;1282;58761;-87
2023/07/01 04:37:20;;;;;;;13.80;8.10;;;;;;;28.87;92.64;100015.52;106883;1285;58250;-84
2023/07/01 04:39:46;;;;;;;13.60;7.90;;;;;;;29.13;93.04;100020.25;106857;1286;58379;-83
2023/07/01 04:42:11;;;;;;;17.70;8.30;;;;;;;29.43;89.31;100025.56;106895;1284;58323;-86
2023/07/01 04:44:37;;;;;;;14.20;8.30;;;;;;;29.60;84.21;100027.16;106644;1286;72449;-86
2023/07/01 04:47:03;;;;;;;13.30;8.00;;;;;;;29.60;81.58;100027.71;106795;1286;58349;-84
2023/07/01 04:49:28;;;;;;;13.00;8.20;;;;;;;29.65;81.22;100027.95;106445;1286;59259;-85
2023/07/01 04:51:54;;;;;;;11.40;8.10;;;;;;;29.87;80.67;100028.00;106819;1286;58713;-84
2023/07/01 04:54:22;;;;;;;12.70;7.70;;;;;;;30.12;78.78;100030.95;106493;1286;58348;-84
2023/07/01 04:56:48;;;;;;;16.70;8.20;;;;;;;30.53;78.27;100033.69;106553;1288;61086;-86
2023/07/01 04:59:13;;;;;;;12.90;8.00;;;;;;;31.00;74.72;100031.16;106449;1288;58377;-85
2023/07/01 05:01:39;;;;;;;13.60;7.80;;;;;;;31.36;73.02;100032.45;106448;1288;58748;-83
2023/07/01 05:04:05;;;;;;;12.60;8.30;;;;;;;31.56;69.12;100028.73;106597;1288;58790;-85
2023/07/01 05:06:31;;;;;;;9.70;7.20;;;;;;;31.52;67.50;100029.49;106590;1288;58646;-86
2023/07/01 05:08:57;;;;;;;11.30;7.40;;;;;;;31.70;67.23;100028.30;106619;1287;61113;-84
2023/07/01 05:11:23;;;;;;;12.80;8.30;;;;;;;32.04;67.00;100029.46;106571;1288;58659;-85
2023/07/01 05:13:48;;;;;;;11.90;8.00;;;;;;;32.56;65.12;100030.18;106610;1289;58355;-85
2023/07/01 05:16:14;;;;;;;15.00;7.80;;;;;;;32.92;62.55;100028.29;106279;1286;58277;-85
2023/07/01 05:18:39;;;;;;;12.10;7.70;;;;;;;33.27;61.00;100033.23;106424;1292;58296;-85
2023/07/01 05:21:05;;;;;;;13.40;8.40;;;;;;;33.53;58.31;100027.95;106579;1286;58373;-86
2023/07/01 05:23:30;;;;;;;9.60;7.20;;;;;;;33.63;56.95;100032.92;106730;1286;58377;-83
2023/07/01 05:36:03;;;;;;;7.20;6.20;;;;;;;34.43;53.21;100049.03;106139;1291;73025;-86
2023/07/01 05:38:28;;;;;;;10.10;7.00;;;;;;;34.71;51.41;100050.77;106156;1291;58621;-85
2023/07/01 05:40:54;;;;;;;15.50;7.10;;;;;;;34.85;50.65;100052.17;106037;1290;58326;-86
2023/07/01 05:43:19;;;;;;;11.50;7.00;;;;;;;34.86;49.18;100052.23;106160;1290;58374;-87
2023/07/01 05:45:45;;;;;;;10.10;6.40;;;;;;;34.93;49.29;100056.20;106191;1291;58363;-85
2023/07/01 05:48:10;;;;;;;7.80;5.90;;;;;;;35.25;49.29;100054.58;106187;1291;74757;-85
2023/07/01 05:50:36;;;;;;;9.60;6.10;;;;;;;35.48;47.91;100054.64;106036;1293;58387;-86
2023/07/01 05:53:02;;;;;;;9.50;5.90;;;;;;;35.54;47.18;100056.50;106150;1291;58641;-86
2023/07/01 05:55:27;;;;;;;9.50;6.00;;;;;;;35.60;46.72;100058.89;106179;1290;58269;-85
2023/07/01 05:57:53;;;;;;;6.20;5.20;;;;;;;35.68;45.96;100060.41;106065;1291;58352;-85
2023/07/01 06:00:18;;;;;;;7.30;6.20;;;;;;;35.78;45.68;100063.89;106186;1292;58357;-85
2023/07/01 06:02:44;;;;;;;7.00;5.20;;;;;;;35.75;44.89;100067.98;105950;1293;58331;-84
2023/07/01 06:05:09;;;;;;;8.00;5.80;;;;;;;35.93;44.76;100073.12;106041;1288;58347;-85
2023/07/01 06:07:35;;;;;;;6.90;5.80;;;;;;;36.06;44.36;100068.98;106539;1287;59074;-86
2023/07/01 06:10:00;;;;;;;11.30;5.90;;;;;;;36.41;43.96;100071.59;106565;1288;58338;-83
2023/07/01 06:12:26;;;;;;;6.30;5.60;;;;;;;36.60;42.78;100075.47;106574;1287;58287;-86
2023/07/01 06:14:52;;;;;;;8.00;5.50;;;;;;;36.72;42.25;100075.34;106562;1288;58741;-85
2023/07/01 06:17:17;;;;;;;6.70;5.50;;;;;;;36.85;42.35;100076.15;106325;1288;58335;-85
2023/07/01 06:19:43;;;;;;;6.80;5.20;;;;;;;37.07;41.53;100073.75;106405;1288;58306;-85
2023/07/01 06:22:08;;;;;;;6.80;5.40;;;;;;;37.20;41.09;100071.62;106505;1289;58416;-85
2023/07/01 06:24:34;;;;;;;5.50;5.00;;;;;;;37.33;41.40;100070.90;106577;1288;58112;-86
2023/07/01 06:26:59;;;;;;;6.80;5.30;;;;;;;37.54;40.89;100073.20;106539;1287;59655;-85
2023/07/01 06:29:25;;;;;;;7.30;5.00;;;;;;;37.69;40.29;100080.60;106556;1288;58840;-83
2023/07/01 06:31:50;;;;;;;7.40;4.70;;;;;;;37.67;38.94;100081.09;106475;1287;58372;-84
2023/07/01 06:56:36;;;;;;;5.40;4.30;;;;;;;37.53;37.46;100099.81;103054;1292;600874;-86
2023/07/01 06:59:01;;;;;;;7.00;4.10;;;;;;;37.51;37.52;100092.36;103197;1292;60333;-86
2023/07/01 07:01:27;;;;;;;9.30;4.30;;;;;;;37.47;36.95;100099.56;103009;1297;60409;-84
2023/07/01 07:03:52;;;;;;;6.30;4.20;;;;;;;37.39;37.07;100098.21;103243;1294;60416;-85
2023/07/01 07:06:18;;;;;;;7.10;4.70;;;;;;;37.52;37.48;100094.14;103046;1294;74153;-84
2023/07/01 07:08:43;;;;;;;7.10;4.10;;;;;;;37.67;37.78;100099.89;102966;1294;60374;-84
2023/07/01 07:11:09;;;;;;;7.30;4.60;;;;;;;38.03;37.52;100108.11;103115;1288;341204;-84
2023/07/01 07:16:57;;;;;;;5.80;4.00;;;;;;;37.35;36.85;100110.58;103305;1291;72429;-83
2023/07/01 07:19:22;;;;;;;4.50;3.80;;;;;;;37.45;36.86;100112.40;103383;1288;61860;-83
2023/07/01 07:21:48;;;;;;;4.70;3.80;;;;;;;37.46;36.52;100113.26;103309;1291;60337;-84
2023/07/01 07:24:13;;;;;;;4.40;3.80;;;;;;;37.60;37.33;100109.38;103512;1292;60434;-84
2023/07/01 07:26:42;;;;;;;7.80;4.00;;;;;;;37.67;36.72;100110.31;106646;1288;58272;-86
2023/07/01 07:29:07;;;;;;;6.00;3.80;;;;;;;37.38;36.60;100114.98;106567;1288;72509;-86
2023/07/01 07:31:33;;;;;;;3.90;3.50;;;;;;;37.52;36.51;100114.91;106529;1287;58176;-85
2023/07/01 07:33:58;;;;;;;7.80;3.60;;;;;;;37.67;36.56;100114.44;106595;1288;58036;-86
2023/07/01 07:36:24;;;;;;;4.60;3.80;;;;;;;37.81;35.83;100117.52;106576;1288;58529;-84
2023/07/01 07:38:49;;;;;;;4.50;3.70;;;;;;;37.98;35.80;100121.70;106721;1286;58214;-86
2023/07/01 07:41:15;;;;;;;8.80;3.90;;;;;;;38.26;35.55;100121.35;106667;1288;61351;-88
2023/07/01 07:43:41;;;;;;;3.80;3.50;;;;;;;38.32;35.36;100121.83;106163;1286;58112;-86
2023/07/01 07:46:07;;;;;;;4.70;3.30;;;;;;;38.26;34.60;100122.98;106743;1286;58091;-85
2023/07/01 07:48:32;;;;;;;4.00;3.30;;;;;;;38.55;34.78;100123.45;106730;1286;58159;-86
2023/07/01 07:50:58;;;;;;;4.70;3.90;;;;;;;38.77;34.77;100125.67;106709;1286;58134;-87
2023/07/01 07:53:24;;;;;;;4.90;4.00;;;;;;;38.70;34.71;100123.47;106595;1286;58143;-86
2023/07/01 07:55:49;;;;;;;6.20;4.10;;;;;;;38.75;34.69;100124.70;106506;1286;58605;-86
2023/07/01 07:58:15;;;;;;;4.10;3.60;;;;;;;38.75;34.12;100121.41;106502;1286;58173;-86
2023/07/01 08:00:40;;;;;;;9.70;3.20;;;;;;;39.04;34.39;100125.31;106459;1286;58221;-85
2023/07/01 08:03:06;;;;;;;7.10;3.30;;;;;;;39.11;33.87;100124.75;106682;1286;58160;-86
2023/07/01 08:05:31;;;;;;;6.00;3.60;;;;;;;39.31;33.77;100124.46;106732;1287;58958;-84
2023/07/01 08:07:57;;;;;;;4.00;3.60;;;;;;;39.45;33.06;100130.08;106792;1287;58070;-85
2023/07/01 08:10:23;;;;;;;3.80;3.40;;;;;;;39.31;33.10;100131.48;106567;1286;72577;-86
2023/07/01 08:12:48;;;;;;;4.00;3.20;;;;;;;39.27;32.82;100133.16;106455;1286;58291;-84
2023/07/01 08:15:14;;;;;;;5.50;3.40;;;;;;;39.25;33.18;100135.73;106711;1286;58250;-87
2023/07/01 08:17:39;;;;;;;4.60;3.50;;;;;;;39.43;33.84;100134.19;106344;1288;58196;-85
2023/07/01 08:20:05;;;;;;;4.70;3.70;;;;;;;39.64;33.24;100139.67;106700;1286;58230;-83
2023/07/01 08:22:31;;;;;;;5.70;3.20;;;;;;;39.66;33.02;100141.31;106674;1286;61100;-87
2023/07/01 08:24:58;;;;;;;5.90;4.00;;;;;;;39.60;33.04;100144.45;106740;1286;58093;-84
2023/07/01 08:27:23;;;;;;;3.90;3.50;;;;;;;39.60;33.15;100145.82;106709;1286;58009;-86
2023/07/01 08:29:49;;;;;;;6.40;3.30;;;;;;;39.65;33.13;100144.23;106447;1289;58285;-85
2023/07/01 08:32:14;;;;;;;3.90;3.40;;;;;;;39.59;32.96;100145.73;106637;1286;58148;-84
2023/07/01 08:34:40;;;;;;;6.20;3.80;;;;;;;39.68;34.01;100141.12;106343;1289;58348;-84
2023/07/01 08:37:06;;;;;;;4.10;3.50;;;;;;;39.84;32.98;100144.69;106387;1289;58119;-85
2023/07/01 08:39:34;;;;;;;4.20;3.50;;;;;;;39.47;33.07;100146.50;106422;1289;58401;-84
2023/07/01 08:42:09;;;;;;;5.10;3.40;;;;;;;39.22;33.30;100144.49;106357;1290;72501;-85
2023/07/01 08:44:34;;;;;;;3.70;3.40;;;;;;;39.31;33.15;100142.21;106031;1292;62585;-86
2023/07/01 08:47:01;;;;;;;6.70;3.50;;;;;;;39.36;32.85;100145.21;106034;1292;58512;-85
2023/07/01 08:49:28;;;;;;;7.60;3.10;;;;;;;39.13;32.51;100145.05;105979;1298;58269;-85
2023/07/01 08:55:15;;;;;;;6.40;3.60;;;;;;;39.09;33.18;100137.09;106081;1292;71124;-83
2023/07/01 08:57:41;;;;;;;3.90;3.10;;;;;;;39.01;33.20;100137.89;106039;1293;58271;-84
2023/07/01 09:00:09;;;;;;;6.40;3.20;;;;;;;39.12;32.95;100134.23;105807;1292;58226;-84
2023/07/01 09:02:51;;;;;;;5.30;3.60;;;;;;;39.15;33.05;100136.34;106092;1292;73672;-85
2023/07/01 09:08:38;;;;;;;9.70;3.90;;;;;;;38.99;32.81;100142.71;106368;1289;72255;-84
2023/07/01 09:11:13;;;;;;;4.90;3.30;;;;;;;39.04;32.70;100146.06;106295;1289;58230;-84
2023/07/01 09:13:38;;;;;;;7.00;3.60;;;;;;;38.94;32.47;100152.54;106303;1289;59965;-82
2023/07/01 09:16:04;;;;;;;8.90;3.50;;;;;;;38.59;32.37;100147.67;106513;1286;58056;-84
2023/07/01 09:18:30;;;;;;;4.50;3.70;;;;;;;38.21;33.05;100140.63;106670;1286;58162;-84
2023/07/01 09:20:59;;;;;;;10.70;3.80;;;;;;;38.01;33.51;100136.19;106666;1286;58040;-82
2023/07/01 09:23:29;;;;;;;5.30;3.80;;;;;;;37.82;34.00;100137.77;106683;1286;61315;-84
2023/07/01 09:26:08;;;;;;;9.30;3.30;;;;;;;37.20;34.64;100141.21;106440;1286;59065;-83
2023/07/01 09:28:34;;;;;;;12.30;3.70;;;;;;;36.83;35.25;100149.33;106620;1287;73553;-85
2023/07/01 09:31:04;;;;;;;5.20;3.60;;;;;;;36.82;35.18;100146.66;106328;1286;58487;-84
2023/07/01 09:33:30;;;;;;;9.50;3.10;;;;;;;36.96;34.99;100145.16;106329;1286;73396;-82
2023/07/01 09:36:02;;;;;;;3.70;3.10;;;;;;;36.97;35.28;100142.80;106385;1286;58348;-83
2023/07/01 09:38:28;;;;;;;4.90;3.70;;;;;;;36.82;35.13;100148.65;106662;1286;61169;-83
2023/07/01 09:40:54;;;;;;;5.30;3.30;;;;;;;36.61;35.28;100149.27;106430;1286;58215;-82
2023/07/01 09:43:19;;;;;;;4.80;3.70;;;;;;;36.52;35.51;100145.11;106673;1286;58323;-81
2023/07/01 09:45:55;;;;;;;5.10;3.20;;;;;;;36.60;35.86;100144.16;106624;1286;58190;-84
2023/07/01 09:48:22;;;;;;;4.10;3.40;;;;;;;36.33;35.51;100150.91;106632;1286;59987;-83
2023/07/01 09:50:49;;;;;;;4.60;3.50;;;;;;;36.03;36.35;100151.71;106667;1286;60739;-83
2023/07/01 09:53:22;;;;;;;7.90;3.30;;;;;;;36.10;36.20;100153.29;106653;1286;73634;-82
2023/07/01 09:55:48;;;;;;;5.50;3.30;;;;;;;35.95;36.64;100149.61;106611;1286;74716;-82
2023/07/01 09:58:15;;;;;;;4.30;3.20;;;;;;;35.82;36.60;100153.83;106456;1286;58147;-82
2023/07/01 10:00:41;;;;;;;6.40;3.40;;;;;;;35.41;36.50;100155.66;106490;1287;59319;-81
2023/07/01 10:03:07;;;;;;;5.60;3.40;;;;;;;35.38;36.82;100157.50;106554;1286;58110;-81
2023/07/01 10:05:34;;;;;;;4.60;3.30;;;;;;;35.44;37.28;100155.81;106389;1286;58276;-83
2023/07/01 10:08:05;;;;;;;5.90;3.40;;;;;;;35.36;36.82;100152.81;106534;1286;58174;-81
2023/07/01 10:10:33;;;;;;;8.60;3.40;;;;;;;35.16;37.18;100149.77;106676;1286;73523;-82
2023/07/01 10:13:01;;;;;;;8.70;3.90;;;;;;;35.13;37.68;100147.50;106601;1286;59266;-81
2023/07/01 10:15:32;;;;;;;7.60;3.30;;;;;;;34.97;37.98;100145.27;106585;1286;60107;-83
2023/07/01 10:18:01;;;;;;;6.70;3.80;;;;;;;34.51;37.93;100147.77;106699;1286;73756;-84
2023/07/01 10:20:32;;;;;;;7.60;3.40;;;;;;;34.19;38.63;100152.64;106678;1286;74360;-84
2023/07/01 10:23:01;;;;;;;5.80;3.30;;;;;;;34.06;38.75;100155.41;106661;1286;73721;-82
2023/07/01 10:25:38;;;;;;;4.10;3.40;;;;;;;34.08;38.65;100151.52;106696;1286;60079;-82
2023/07/01 10:28:05;;;;;;;6.30;3.50;;;;;;;33.95;38.58;100149.52;106714;1286;61088;-82
2023/07/01 10:30:45;;;;;;;4.80;3.40;;;;;;;33.75;38.97;100153.83;106670;1286;72884;-83
2023/07/01 10:33:35;;;;;;;5.40;3.40;;;;;;;33.51;39.02;100153.64;106670;1287;74239;-83
2023/07/01 10:36:09;;;;;;;4.90;3.40;;;;;;;33.53;39.42;100154.40;106689;1286;73376;-81
2023/07/01 10:38:36;;;;;;;4.50;3.30;;;;;;;33.74;39.29;100152.11;106426;1286;59984;-83
2023/07/01 10:41:03;;;;;;;8.20;3.80;;;;;;;33.60;39.00;100155.17;106589;1286;60070;-83
2023/07/01 10:43:33;;;;;;;5.70;3.30;;;;;;;33.50;39.96;100159.17;106731;1286;58029;-83
2023/07/01 10:46:03;;;;;;;7.80;3.60;;;;;;;33.65;39.81;100160.67;106517;1286;74384;-82
2023/07/01 10:48:29;;;;;;;5.50;3.50;;;;;;;33.79;39.66;100163.02;106640;1286;72323;-82
2023/07/01 10:51:04;;;;;;;3.80;3.00;;;;;;;33.90;39.30;100162.72;106642;1286;58208;-83
2023/07/01 10:53:30;;;;;;;4.50;3.40;;;;;;;33.83;39.62;100160.30;106676;1287;59996;-84
2023/07/01 10:56:13;;;;;;;5.10;2.90;;;;;;;33.99;39.86;100161.59;106555;1286;58073;-83
2023/07/01 10:58:40;;;;;;;6.80;3.10;;;;;;;34.23;39.54;100155.17;106625;1286;74404;-82
2023/07/01 11:01:05;;;;;;;8.00;3.90;;;;;;;34.43;39.05;100160.41;106666;1286;73809;-83
2023/07/01 11:03:37;;;;;;;6.10;3.20;;;;;;;34.35;38.60;100152.35;106670;1286;58202;-83
2023/07/01 11:06:05;;;;;;;5.20;3.40;;;;;;;34.39;39.26;100155.55;106655;1287;61416;-82
2023/07/01 11:08:32;;;;;;;5.00;3.50;;;;;;;34.50;39.00;100153.36;106701;1286;74440;-83
2023/07/01 11:10:58;;;;;;;6.00;3.10;;;;;;;34.48;38.97;100154.23;106667;1286;74159;-82
2023/07/01 11:13:25;;;;;;;5.70;3.60;;;;;;;34.43;38.77;100152.51;106617;1286;58268;-83
2023/07/01 11:16:20;;;;;;;5.30;3.40;;;;;;;34.43;39.03;100152.34;106409;1286;58328;-84
2023/07/01 11:18:52;;;;;;;5.50;3.50;;;;;;;34.46;37.76;100148.52;106210;1291;60113;-82
2023/07/01 11:21:24;;;;;;;4.30;2.90;;;;;;;34.37;38.03;100145.61;105986;1294;73788;-82
2023/07/01 11:23:58;;;;;;;4.20;3.00;;;;;;;34.26;38.21;100141.45;105837;1295;75192;-83
2023/07/01 11:26:27;;;;;;;6.50;3.30;;;;;;;34.10;38.04;100142.93;105915;1295;73452;-82
2023/07/01 11:28:52;;;;;;;7.80;3.80;;;;;;;34.08;38.81;100138.48;105963;1294;60114;-85
2023/07/01 11:31:21;;;;;;;4.90;3.30;;;;;;;34.09;38.87;100143.56;105681;1299;58315;-83
2023/07/01 11:33:48;;;;;;;6.30;3.20;;;;;;;33.73;39.11;100149.95;105726;1298;73921;-85
2023/07/01 11:36:15;;;;;;;5.50;3.50;;;;;;;33.35;38.68;100150.09;105712;1297;74711;-84
2023/07/01 11:38:45;;;;;;;6.50;2.90;;;;;;;32.98;39.21;100146.73;105495;1298;72776;-83
2023/07/01 11:41:15;;;;;;;4.80;3.40;;;;;;;32.98;40.32;100142.66;105687;1297;60175;-83
2023/07/01 11:43:41;;;;;;;6.80;3.40;;;;;;;33.22;40.05;100146.09;105710;1297;60132;-84
2023/07/01 11:46:06;;;;;;;5.00;3.40;;;;;;;33.36;39.63;100150.55;105687;1297;58314;-82
2023/07/01 11:48:32;;;;;;;6.50;3.30;;;;;;;33.41;38.15;100148.70;105511;1297;58465;-82
2023/07/01 11:50:58;;;;;;;8.80;3.10;;;;;;;33.27;38.62;100149.36;105479;1298;58318;-83
2023/07/01 11:53:28;;;;;;;4.40;3.10;;;;;;;33.23;38.92;100150.39;105987;1294;58698;-81
2023/07/01 11:55:58;;;;;;;5.20;3.70;;;;;;;33.08;38.95;100154.15;105788;1291;74630;-82